createdAt,value
2017-10-29T00:00:27.402Z,11.07
2017-10-29T00:01:36.401Z,11.09
2017-10-29T00:02:45.880Z,11.06
2017-10-29T00:03:56.049Z,11.09
2017-10-29T00:05:05.520Z,11.09
2017-10-29T00:06:14.523Z,11.09
2017-10-29T00:07:24.565Z,11.09
2017-10-29T00:08:34.096Z,11.09
2017-10-29T00:09:43.704Z,11.10
2017-10-29T00:10:52.608Z,11.10
2017-10-29T00:12:02.690Z,11.18
2017-10-29T00:13:12.292Z,11.21
2017-10-29T00:14:21.749Z,11.22
2017-10-29T00:15:31.239Z,11.22
2017-10-29T00:16:40.807Z,11.23
2017-10-29T00:17:50.346Z,11.35
2017-10-29T00:18:59.872Z,11.46
2017-10-29T00:20:08.912Z,11.56
2017-10-29T00:21:18.930Z,11.60
2017-10-29T00:22:27.958Z,11.61
2017-10-29T00:23:37.991Z,11.61
2017-10-29T00:24:47.014Z,11.60
2017-10-29T00:25:56.570Z,11.61
2017-10-29T00:27:06.285Z,11.71
2017-10-29T00:28:15.806Z,11.72
2017-10-29T00:29:25.148Z,11.76
2017-10-29T00:30:34.712Z,11.75
2017-10-29T00:31:44.369Z,11.77
2017-10-29T00:32:53.761Z,11.80
2017-10-29T00:34:03.359Z,11.85
2017-10-29T00:35:12.856Z,11.86
2017-10-29T00:36:22.867Z,11.88
2017-10-29T00:37:32.463Z,11.90
2017-10-29T00:38:43.091Z,11.90
2017-10-29T00:39:51.626Z,11.90
2017-10-29T00:41:00.659Z,11.96
2017-10-29T00:42:10.758Z,12.03
2017-10-29T00:43:20.287Z,12.03
2017-10-29T00:44:29.307Z,12.03
2017-10-29T00:45:39.303Z,12.03
2017-10-29T00:46:48.904Z,12.02
2017-10-29T00:47:57.867Z,12.01
2017-10-29T00:49:07.458Z,12.01
2017-10-29T00:50:17.008Z,12.01
2017-10-29T00:51:26.621Z,11.98
2017-10-29T00:52:36.666Z,12.00
2017-10-29T00:53:46.192Z,12.03
2017-10-29T00:54:55.158Z,12.03
2017-10-29T00:56:05.269Z,12.02
2017-10-29T00:57:14.277Z,12.06
2017-10-29T00:58:24.417Z,12.05
2017-10-29T00:59:33.436Z,12.06
2017-10-29T01:00:42.994Z,12.14
2017-10-29T01:01:52.571Z,12.17
2017-10-29T01:03:02.127Z,12.19
2017-10-29T01:04:11.664Z,12.18
2017-10-29T01:05:21.206Z,12.15
2017-10-29T01:06:30.796Z,12.14
2017-10-29T01:07:40.427Z,12.15
2017-10-29T01:08:49.838Z,12.14
2017-10-29T01:09:59.492Z,12.18
2017-10-29T01:11:08.946Z,12.22
2017-10-29T01:12:18.662Z,12.22
2017-10-29T01:13:28.017Z,12.17
2017-10-29T01:14:37.577Z,12.19
2017-10-29T01:15:47.197Z,12.27
2017-10-29T01:16:56.700Z,12.31
2017-10-29T01:18:06.332Z,12.27
2017-10-29T01:19:15.871Z,12.27
2017-10-29T01:20:25.764Z,12.28
2017-10-29T01:21:34.928Z,12.31
2017-10-29T01:22:45.071Z,12.35
2017-10-29T01:23:54.091Z,12.36
2017-10-29T01:25:03.590Z,12.39
2017-10-29T01:26:13.162Z,12.36
2017-10-29T01:27:22.706Z,12.35
2017-10-29T01:28:32.309Z,12.35
2017-10-29T01:29:42.366Z,12.38
2017-10-29T01:30:51.503Z,12.35
2017-10-29T01:32:01.927Z,12.34
2017-10-29T01:33:10.610Z,12.27
2017-10-29T01:34:20.066Z,12.31
2017-10-29T01:35:29.715Z,12.32
2017-10-29T01:36:39.229Z,12.35
2017-10-29T01:37:48.759Z,12.34
2017-10-29T01:38:58.391Z,12.32
2017-10-29T01:40:07.928Z,12.28
2017-10-29T01:41:17.440Z,12.30
2017-10-29T01:42:27.090Z,12.27
2017-10-29T01:43:36.622Z,12.25
2017-10-29T01:44:46.210Z,12.23
2017-10-29T01:45:55.676Z,12.28
2017-10-29T01:47:05.218Z,12.27
2017-10-29T01:48:14.843Z,12.31
2017-10-29T01:49:24.339Z,12.30
2017-10-29T01:50:34.035Z,12.27
2017-10-29T01:51:43.535Z,12.25
2017-10-29T01:52:53.061Z,12.26
2017-10-29T01:54:02.568Z,12.27
2017-10-29T01:55:12.132Z,12.27
2017-10-29T01:56:22.084Z,12.27
2017-10-29T01:57:31.243Z,12.27
2017-10-29T01:58:40.818Z,12.26
2017-10-29T01:59:50.359Z,12.25
2017-10-29T02:00:59.947Z,12.27
2017-10-29T02:02:09.594Z,12.32
2017-10-29T02:03:19.050Z,12.32
2017-10-29T02:04:28.674Z,12.32
2017-10-29T02:05:38.190Z,12.35
2017-10-29T02:06:47.812Z,12.44
2017-10-29T02:07:57.367Z,12.43
2017-10-29T02:09:06.898Z,12.39
2017-10-29T02:10:16.429Z,12.35
2017-10-29T02:11:25.983Z,12.34
2017-10-29T02:12:35.600Z,12.35
2017-10-29T02:13:45.186Z,12.40
2017-10-29T02:14:54.660Z,12.39
2017-10-29T02:16:04.215Z,12.39
2017-10-29T02:17:13.745Z,12.35
2017-10-29T02:18:23.864Z,12.35
2017-10-29T02:19:32.944Z,12.34
2017-10-29T02:20:42.693Z,12.34
2017-10-29T02:21:52.039Z,12.31
2017-10-29T02:23:01.578Z,12.30
2017-10-29T02:24:11.204Z,12.28
2017-10-29T02:25:20.738Z,12.27
2017-10-29T02:26:30.462Z,12.27
2017-10-29T02:27:39.902Z,12.27
2017-10-29T02:28:50.358Z,12.27
2017-10-29T02:29:58.924Z,12.26
2017-10-29T02:31:08.505Z,12.27
2017-10-29T02:32:18.049Z,12.27
2017-10-29T02:33:27.657Z,12.27
2017-10-29T02:34:37.662Z,12.27
2017-10-29T02:35:46.758Z,12.27
2017-10-29T02:36:56.299Z,12.27
2017-10-29T02:38:05.875Z,12.32
2017-10-29T02:39:15.583Z,12.32
2017-10-29T02:40:24.969Z,12.31
2017-10-29T02:41:34.588Z,12.31
2017-10-29T02:42:44.180Z,12.32
2017-10-29T02:43:53.733Z,12.34
2017-10-29T02:45:03.218Z,12.35
2017-10-29T02:46:12.825Z,12.34
2017-10-29T02:47:22.436Z,12.35
2017-10-29T02:48:31.960Z,12.32
2017-10-29T02:49:41.491Z,12.35
2017-10-29T02:50:51.200Z,12.34
2017-10-29T02:52:00.651Z,12.36
2017-10-29T02:53:10.773Z,12.39
2017-10-29T02:54:19.697Z,12.39
2017-10-29T02:55:29.245Z,12.39
2017-10-29T02:56:38.900Z,12.40
2017-10-29T02:57:48.413Z,12.46
2017-10-29T02:58:58.525Z,12.43
2017-10-29T03:00:07.495Z,12.43
2017-10-29T03:01:17.356Z,12.48
2017-10-29T03:02:26.649Z,12.47
2017-10-29T03:03:36.346Z,12.48
2017-10-29T03:04:45.741Z,12.48
2017-10-29T03:05:55.349Z,12.48
2017-10-29T03:07:04.869Z,12.52
2017-10-29T03:08:14.432Z,12.52
2017-10-29T03:09:24.021Z,12.52
2017-10-29T03:10:33.554Z,12.52
2017-10-29T03:11:43.200Z,12.50
2017-10-29T03:12:52.681Z,12.48
2017-10-29T03:14:03.235Z,12.55
2017-10-29T03:15:11.850Z,12.56
2017-10-29T03:16:21.389Z,12.56
2017-10-29T03:17:31.523Z,12.53
2017-10-29T03:18:40.641Z,12.53
2017-10-29T03:19:50.071Z,12.55
2017-10-29T03:20:59.730Z,12.59
2017-10-29T03:22:09.592Z,12.60
2017-10-29T03:23:18.801Z,12.60
2017-10-29T03:24:28.432Z,12.63
2017-10-29T03:25:38.466Z,12.60
2017-10-29T03:26:47.505Z,12.57
2017-10-29T03:27:57.122Z,12.57
2017-10-29T03:29:06.651Z,12.56
2017-10-29T03:30:16.258Z,12.56
2017-10-29T03:31:25.739Z,12.60
2017-10-29T03:32:35.445Z,12.57
2017-10-29T03:33:44.871Z,12.63
2017-10-29T03:34:54.507Z,12.72
2017-10-29T03:36:04.004Z,12.71
2017-10-29T03:37:13.589Z,12.68
2017-10-29T03:38:23.198Z,12.67
2017-10-29T03:39:32.708Z,12.64
2017-10-29T03:40:42.774Z,12.64
2017-10-29T03:41:51.869Z,12.68
2017-10-29T03:43:01.938Z,12.72
2017-10-29T03:44:10.966Z,12.72
2017-10-29T03:45:20.588Z,12.68
2017-10-29T03:46:30.303Z,12.75
2017-10-29T03:47:39.931Z,12.79
2017-10-29T03:48:49.792Z,12.81
2017-10-29T03:49:58.918Z,12.79
2017-10-29T03:51:08.450Z,12.79
2017-10-29T03:52:17.977Z,12.77
2017-10-29T03:53:27.613Z,12.77
2017-10-29T03:54:37.098Z,12.79
2017-10-29T03:55:47.186Z,12.77
2017-10-29T03:56:56.301Z,12.76
2017-10-29T03:58:05.831Z,12.77
2017-10-29T03:59:15.380Z,12.84
2017-10-29T04:00:24.995Z,12.86
2017-10-29T04:01:34.525Z,12.88
2017-10-29T04:02:44.341Z,12.89
2017-10-29T04:03:53.687Z,12.85
2017-10-29T04:05:03.230Z,12.85
2017-10-29T04:06:12.925Z,12.85
2017-10-29T04:07:22.413Z,12.88
2017-10-29T04:08:32.014Z,12.85
2017-10-29T04:09:41.557Z,12.90
2017-10-29T04:10:51.085Z,12.90
2017-10-29T04:12:01.294Z,12.85
2017-10-29T04:13:10.430Z,12.89
2017-10-29T04:14:19.952Z,12.85
2017-10-29T04:15:29.478Z,12.86
2017-10-29T04:16:39.042Z,12.89
2017-10-29T04:17:48.598Z,12.90
2017-10-29T04:18:58.101Z,12.90
2017-10-29T04:20:07.735Z,12.92
2017-10-29T04:21:17.265Z,12.93
2017-10-29T04:22:26.801Z,12.92
2017-10-29T04:23:36.613Z,12.93
2017-10-29T04:24:45.959Z,12.96
2017-10-29T04:25:55.662Z,12.98
2017-10-29T04:27:05.702Z,13.00
2017-10-29T04:28:14.778Z,12.98
2017-10-29T04:29:24.249Z,12.98
2017-10-29T04:30:33.911Z,12.96
2017-10-29T04:31:43.530Z,12.94
2017-10-29T04:32:53.075Z,12.93
2017-10-29T04:34:02.596Z,12.89
2017-10-29T04:35:12.236Z,12.89
2017-10-29T04:36:21.716Z,12.85
2017-10-29T04:37:31.811Z,12.84
2017-10-29T04:38:41.189Z,12.84
2017-10-29T04:39:50.540Z,12.85
2017-10-29T04:41:00.095Z,12.85
2017-10-29T04:42:09.586Z,12.85
2017-10-29T04:43:19.265Z,12.86
2017-10-29T04:44:28.811Z,12.86
2017-10-29T04:45:38.329Z,12.85
2017-10-29T04:46:47.953Z,12.82
2017-10-29T04:47:57.459Z,12.80
2017-10-29T04:49:07.298Z,12.80
2017-10-29T04:50:16.652Z,12.81
2017-10-29T04:51:26.279Z,12.79
2017-10-29T04:52:35.777Z,12.77
2017-10-29T04:53:45.355Z,12.77
2017-10-29T04:54:55.052Z,12.77
2017-10-29T04:56:04.507Z,12.77
2017-10-29T04:57:15.045Z,12.79
2017-10-29T04:58:23.668Z,12.77
2017-10-29T04:59:33.233Z,12.77
2017-10-29T05:00:42.836Z,12.76
2017-10-29T05:01:52.364Z,12.77
2017-10-29T05:03:02.066Z,12.77
2017-10-29T05:04:11.524Z,12.72
2017-10-29T05:05:21.158Z,12.71
2017-10-29T05:06:30.655Z,12.72
2017-10-29T05:07:40.320Z,12.69
2017-10-29T05:08:49.856Z,12.65
2017-10-29T05:09:59.939Z,12.67
2017-10-29T05:11:10.038Z,12.67
2017-10-29T05:12:18.544Z,12.71
2017-10-29T05:13:28.098Z,12.75
2017-10-29T05:14:37.695Z,12.75
2017-10-29T05:15:47.225Z,12.75
2017-10-29T05:16:56.868Z,12.68
2017-10-29T05:18:06.375Z,12.68
2017-10-29T05:19:16.050Z,12.72
2017-10-29T05:20:25.574Z,12.82
2017-10-29T05:21:35.103Z,12.92
2017-10-29T05:22:44.800Z,12.90
2017-10-29T05:23:54.262Z,12.89
2017-10-29T05:25:03.907Z,12.81
2017-10-29T05:26:13.425Z,12.75
2017-10-29T05:27:22.920Z,12.68
2017-10-29T05:28:32.502Z,12.75
2017-10-29T05:29:42.123Z,12.75
2017-10-29T05:30:51.660Z,12.65
2017-10-29T05:32:01.284Z,12.65
2017-10-29T05:33:10.807Z,12.61
2017-10-29T05:34:20.340Z,12.61
2017-10-29T05:35:30.074Z,12.68
2017-10-29T05:36:39.459Z,12.60
2017-10-29T05:37:49.136Z,12.56
2017-10-29T05:38:58.585Z,12.51
2017-10-29T05:40:08.295Z,12.42
2017-10-29T05:41:17.736Z,12.44
2017-10-29T05:42:27.270Z,12.47
2017-10-29T05:43:36.973Z,12.56
2017-10-29T05:44:46.395Z,12.64
2017-10-29T05:45:56.068Z,12.65
2017-10-29T05:47:05.585Z,12.64
2017-10-29T05:48:15.205Z,12.68
2017-10-29T05:49:24.926Z,12.71
2017-10-29T05:50:34.326Z,12.76
2017-10-29T05:51:43.874Z,12.80
2017-10-29T05:52:53.338Z,12.79
2017-10-29T05:54:03.488Z,12.72
2017-10-29T05:55:12.956Z,12.68
2017-10-29T05:56:22.213Z,12.72
2017-10-29T05:57:31.738Z,12.75
2017-10-29T05:58:41.269Z,12.75
2017-10-29T05:59:50.739Z,12.68
2017-10-29T06:01:00.469Z,12.59
2017-10-29T06:02:09.857Z,12.47
2017-10-29T06:03:19.806Z,12.43
2017-10-29T06:04:29.637Z,12.39
2017-10-29T06:05:38.589Z,12.36
2017-10-29T06:06:48.283Z,12.39
2017-10-29T06:07:57.838Z,12.31
2017-10-29T06:09:07.333Z,12.28
2017-10-29T06:10:16.989Z,12.28
2017-10-29T06:11:26.695Z,12.31
2017-10-29T06:12:35.976Z,12.28
2017-10-29T06:13:45.603Z,12.31
2017-10-29T06:14:55.136Z,12.30
2017-10-29T06:16:04.660Z,12.23
2017-10-29T06:17:14.194Z,12.22
2017-10-29T06:18:23.825Z,12.17
2017-10-29T06:19:33.430Z,12.14
2017-10-29T06:20:42.886Z,12.10
2017-10-29T06:21:52.439Z,12.07
2017-10-29T06:23:01.976Z,12.06
2017-10-29T06:24:11.585Z,12.05
2017-10-29T06:25:22.085Z,12.06
2017-10-29T06:26:31.182Z,12.07
2017-10-29T06:27:40.273Z,12.06
2017-10-29T06:28:49.787Z,12.03
2017-10-29T06:29:59.827Z,12.05
2017-10-29T06:31:08.966Z,12.03
2017-10-29T06:32:18.706Z,12.01
2017-10-29T06:33:28.028Z,11.98
2017-10-29T06:34:37.659Z,11.98
2017-10-29T06:35:47.128Z,11.97
2017-10-29T06:36:57.249Z,11.93
2017-10-29T06:38:06.256Z,11.93
2017-10-29T06:39:15.967Z,11.89
2017-10-29T06:40:25.418Z,11.85
2017-10-29T06:41:34.918Z,11.81
2017-10-29T06:42:44.555Z,11.81
2017-10-29T06:43:54.187Z,11.76
2017-10-29T06:45:03.565Z,11.68
2017-10-29T06:46:13.233Z,11.59
2017-10-29T06:47:22.698Z,11.52
2017-10-29T06:48:32.242Z,11.47
2017-10-29T06:49:41.864Z,11.52
2017-10-29T06:50:51.393Z,11.50
2017-10-29T06:52:01.107Z,11.56
2017-10-29T06:53:10.457Z,11.56
2017-10-29T06:54:20.088Z,11.52
2017-10-29T06:55:29.620Z,11.61
2017-10-29T06:56:39.331Z,11.57
2017-10-29T06:57:48.616Z,11.52
2017-10-29T06:58:58.217Z,11.48
2017-10-29T07:00:07.817Z,11.48
2017-10-29T07:01:17.271Z,11.67
2017-10-29T07:02:26.920Z,11.67
2017-10-29T07:03:36.342Z,11.65
2017-10-29T07:04:45.890Z,11.61
2017-10-29T07:05:55.463Z,11.60
2017-10-29T07:07:05.007Z,11.59
2017-10-29T07:08:14.634Z,11.56
2017-10-29T07:09:24.100Z,11.57
2017-10-29T07:10:34.231Z,11.50
2017-10-29T07:11:43.228Z,11.42
2017-10-29T07:12:52.752Z,11.47
2017-10-29T07:14:02.312Z,11.47
2017-10-29T07:15:11.940Z,11.47
2017-10-29T07:16:21.474Z,11.43
2017-10-29T07:17:30.977Z,11.40
2017-10-29T07:18:40.506Z,11.39
2017-10-29T07:19:50.052Z,11.42
2017-10-29T07:20:59.610Z,11.47
2017-10-29T07:22:09.245Z,11.46
2017-10-29T07:23:18.833Z,11.53
2017-10-29T07:24:28.288Z,11.63
2017-10-29T07:25:37.808Z,11.57
2017-10-29T07:26:47.474Z,11.50
2017-10-29T07:27:57.494Z,11.53
2017-10-29T07:29:06.474Z,11.60
2017-10-29T07:30:16.044Z,11.65
2017-10-29T07:31:25.680Z,11.52
2017-10-29T07:32:35.224Z,11.61
2017-10-29T07:33:44.705Z,11.72
2017-10-29T07:34:54.476Z,11.80
2017-10-29T07:36:03.826Z,11.82
2017-10-29T07:37:13.415Z,11.65
2017-10-29T07:38:22.973Z,11.61
2017-10-29T07:39:32.506Z,11.57
2017-10-29T07:40:42.126Z,11.61
2017-10-29T07:41:52.184Z,11.60
2017-10-29T07:43:01.261Z,11.51
2017-10-29T07:44:10.817Z,11.48
2017-10-29T07:45:20.281Z,11.60
2017-10-29T07:46:29.839Z,11.73
2017-10-29T07:47:39.594Z,11.93
2017-10-29T07:48:48.958Z,12.10
2017-10-29T07:49:58.519Z,12.22
2017-10-29T07:51:08.105Z,12.31
2017-10-29T07:52:18.686Z,12.27
2017-10-29T07:53:27.249Z,12.22
2017-10-29T07:54:36.818Z,12.14
2017-10-29T07:55:46.389Z,12.10
2017-10-29T07:56:56.511Z,12.00
2017-10-29T07:58:05.575Z,11.93
2017-10-29T07:59:15.122Z,11.80
2017-10-29T08:00:24.819Z,11.76
2017-10-29T08:01:34.251Z,11.71
2017-10-29T08:02:44.102Z,11.65
2017-10-29T08:03:53.450Z,11.64
2017-10-29T08:05:03.532Z,11.68
2017-10-29T08:06:12.614Z,11.65
2017-10-29T08:07:22.113Z,11.56
2017-10-29T08:08:31.673Z,11.47
2017-10-29T08:09:42.231Z,11.47
2017-10-29T08:10:50.797Z,11.43
2017-10-29T08:12:00.419Z,11.51
2017-10-29T08:13:09.927Z,11.48
2017-10-29T08:14:19.539Z,11.47
2017-10-29T08:15:29.061Z,11.56
2017-10-29T08:16:38.621Z,11.68
2017-10-29T08:17:48.249Z,11.69
2017-10-29T08:18:57.770Z,11.81
2017-10-29T08:20:07.900Z,11.93
2017-10-29T08:21:17.101Z,11.97
2017-10-29T08:22:26.570Z,11.97
2017-10-29T08:23:36.047Z,12.00
2017-10-29T08:24:45.724Z,12.15
2017-10-29T08:25:55.250Z,12.21
2017-10-29T08:27:04.805Z,12.23
2017-10-29T08:28:14.927Z,12.30
2017-10-29T08:29:24.043Z,12.32
2017-10-29T08:30:33.514Z,12.39
2017-10-29T08:31:43.178Z,12.48
2017-10-29T08:32:52.710Z,12.53
2017-10-29T08:34:02.474Z,12.55
2017-10-29T08:35:12.001Z,12.50
2017-10-29T08:36:21.533Z,12.53
2017-10-29T08:37:31.117Z,12.47
2017-10-29T08:38:40.905Z,12.40
2017-10-29T08:39:50.842Z,12.42
2017-10-29T08:40:59.915Z,12.31
2017-10-29T08:42:09.557Z,12.21
2017-10-29T08:43:19.224Z,12.05
2017-10-29T08:44:28.727Z,11.86
2017-10-29T08:45:38.326Z,11.73
2017-10-29T08:46:48.096Z,11.63
2017-10-29T08:47:57.538Z,11.56
2017-10-29T08:49:07.110Z,11.56
2017-10-29T08:50:16.703Z,11.53
2017-10-29T08:51:26.283Z,11.52
2017-10-29T08:52:35.902Z,11.50
2017-10-29T08:53:45.449Z,11.51
2017-10-29T08:54:55.043Z,11.55
2017-10-29T08:56:04.613Z,11.56
2017-10-29T08:57:14.388Z,11.52
2017-10-29T08:58:23.916Z,11.60
2017-10-29T08:59:33.368Z,11.63
2017-10-29T09:00:42.926Z,11.68
2017-10-29T09:01:52.492Z,11.68
2017-10-29T09:03:02.182Z,11.81
2017-10-29T09:04:11.797Z,11.97
2017-10-29T09:05:21.329Z,12.15
2017-10-29T09:06:30.857Z,12.30
2017-10-29T09:07:41.018Z,12.36
2017-10-29T09:08:50.130Z,12.44
2017-10-29T09:09:59.648Z,12.34
2017-10-29T09:11:09.288Z,12.25
2017-10-29T09:12:18.937Z,12.30
2017-10-29T09:13:28.970Z,12.31
2017-10-29T09:14:38.055Z,12.39
2017-10-29T09:15:47.723Z,12.56
2017-10-29T09:16:57.873Z,12.56
2017-10-29T09:18:06.908Z,12.52
2017-10-29T09:19:16.508Z,12.52
2017-10-29T09:20:26.157Z,12.46
2017-10-29T09:21:35.729Z,12.47
2017-10-29T09:22:45.431Z,12.50
2017-10-29T09:23:55.957Z,12.38
2017-10-29T09:25:04.675Z,12.39
2017-10-29T09:26:14.682Z,12.52
2017-10-29T09:27:23.862Z,12.61
2017-10-29T09:28:33.427Z,12.60
2017-10-29T09:29:43.065Z,12.50
2017-10-29T09:30:52.672Z,12.42
2017-10-29T09:32:02.386Z,12.46
2017-10-29T09:33:12.098Z,12.43
2017-10-29T09:34:21.545Z,12.53
2017-10-29T09:35:31.172Z,12.59
2017-10-29T09:36:41.418Z,12.56
2017-10-29T09:37:50.437Z,12.65
2017-10-29T09:39:00.140Z,12.64
2017-10-29T09:40:10.211Z,12.77
2017-10-29T09:41:19.330Z,12.79
2017-10-29T09:42:28.977Z,12.76
2017-10-29T09:43:38.597Z,12.68
2017-10-29T09:44:48.236Z,12.80
2017-10-29T09:45:59.194Z,12.86
2017-10-29T09:47:08.293Z,12.88
2017-10-29T09:48:17.232Z,12.96
2017-10-29T09:49:27.481Z,12.85
2017-10-29T09:50:36.617Z,12.68
2017-10-29T09:51:46.164Z,12.60
2017-10-29T09:52:56.188Z,12.76
2017-10-29T09:54:05.582Z,12.85
2017-10-29T09:55:15.134Z,12.72
2017-10-29T09:56:24.870Z,12.46
2017-10-29T09:57:34.513Z,12.27
2017-10-29T09:58:44.129Z,12.17
2017-10-29T09:59:53.762Z,12.14
2017-10-29T10:01:03.355Z,12.17
2017-10-29T10:02:13.046Z,12.19
2017-10-29T10:03:22.661Z,12.22
2017-10-29T10:04:32.258Z,12.23
2017-10-29T10:05:41.892Z,12.15
2017-10-29T10:06:51.524Z,12.02
2017-10-29T10:08:01.166Z,11.97
2017-10-29T10:09:10.823Z,11.93
2017-10-29T10:10:20.458Z,11.94
2017-10-29T10:11:31.026Z,12.00
2017-10-29T10:12:41.340Z,12.03
2017-10-29T10:13:49.356Z,12.07
2017-10-29T10:14:59.055Z,12.10
2017-10-29T10:16:08.622Z,12.15
2017-10-29T10:17:18.151Z,12.17
2017-10-29T10:18:27.784Z,12.22
2017-10-29T10:19:37.362Z,12.23
2017-10-29T10:20:46.987Z,12.26
2017-10-29T10:21:56.681Z,12.14
2017-10-29T10:23:06.333Z,12.03
2017-10-29T10:24:15.860Z,12.06
2017-10-29T10:25:25.481Z,12.10
2017-10-29T10:26:35.115Z,12.10
2017-10-29T10:27:45.754Z,12.05
2017-10-29T10:28:54.378Z,12.07
2017-10-29T10:30:03.986Z,12.07
2017-10-29T10:31:13.616Z,12.19
2017-10-29T10:32:23.266Z,12.32
2017-10-29T10:33:32.872Z,12.30
2017-10-29T10:34:42.514Z,12.22
2017-10-29T10:35:53.126Z,12.28
2017-10-29T10:37:02.253Z,12.23
2017-10-29T10:38:11.416Z,12.22
2017-10-29T10:39:21.024Z,12.21
2017-10-29T10:40:30.770Z,12.25
2017-10-29T10:41:40.279Z,12.31
2017-10-29T10:42:50.922Z,12.36
2017-10-29T10:43:59.533Z,12.34
2017-10-29T10:45:10.161Z,12.32
2017-10-29T10:46:18.796Z,12.39
2017-10-29T10:47:28.688Z,12.44
2017-10-29T10:48:38.062Z,12.46
2017-10-29T10:49:47.729Z,12.50
2017-10-29T10:50:57.429Z,12.56
2017-10-29T10:52:06.937Z,12.55
2017-10-29T10:53:16.634Z,12.57
2017-10-29T10:54:26.302Z,12.59
2017-10-29T10:55:36.122Z,12.68
2017-10-29T10:56:45.467Z,12.73
2017-10-29T10:57:55.215Z,12.75
2017-10-29T10:59:05.344Z,12.77
2017-10-29T11:00:14.465Z,12.68
2017-10-29T11:01:24.023Z,12.71
2017-10-29T11:02:33.695Z,12.72
2017-10-29T11:03:43.309Z,12.61
2017-10-29T11:04:52.995Z,12.61
2017-10-29T11:06:02.628Z,12.73
2017-10-29T11:07:12.279Z,12.86
2017-10-29T11:08:22.017Z,13.02
2017-10-29T11:09:33.169Z,13.01
2017-10-29T11:10:42.294Z,12.96
2017-10-29T11:11:50.997Z,12.93
2017-10-29T11:13:00.660Z,13.13
2017-10-29T11:14:10.368Z,13.23
2017-10-29T11:15:20.099Z,13.31
2017-10-29T11:16:29.762Z,13.35
2017-10-29T11:17:39.587Z,13.47
2017-10-29T11:18:50.229Z,13.39
2017-10-29T11:19:58.990Z,13.48
2017-10-29T11:21:08.779Z,13.46
2017-10-29T11:22:18.512Z,13.55
2017-10-29T11:23:28.264Z,13.55
2017-10-29T11:24:37.988Z,13.52
2017-10-29T11:25:47.822Z,13.50
2017-10-29T11:26:57.528Z,13.36
2017-10-29T11:28:07.577Z,13.27
2017-10-29T11:29:17.057Z,13.31
2017-10-29T11:30:26.807Z,13.36
2017-10-29T11:31:36.569Z,13.61
2017-10-29T11:32:46.363Z,13.86
2017-10-29T11:33:56.118Z,13.81
2017-10-29T11:35:05.938Z,13.60
2017-10-29T11:36:15.744Z,13.42
2017-10-29T11:37:26.005Z,13.27
2017-10-29T11:38:35.340Z,13.10
2017-10-29T11:39:45.107Z,12.93
2017-10-29T11:40:55.410Z,12.84
2017-10-29T11:42:05.243Z,12.84
2017-10-29T11:43:14.563Z,12.85
2017-10-29T11:44:24.401Z,12.97
2017-10-29T11:45:34.247Z,13.09
2017-10-29T11:46:44.286Z,13.11
2017-10-29T11:47:54.995Z,13.11
2017-10-29T11:49:03.856Z,13.02
2017-10-29T11:50:13.653Z,12.85
2017-10-29T11:51:23.540Z,12.81
2017-10-29T11:52:33.398Z,12.82
2017-10-29T11:53:43.224Z,12.96
2017-10-29T11:54:53.044Z,13.06
2017-10-29T11:56:02.886Z,13.14
2017-10-29T11:57:12.925Z,13.17
2017-10-29T11:58:23.091Z,13.19
2017-10-29T11:59:32.395Z,13.10
2017-10-29T12:00:42.237Z,13.14
2017-10-29T12:01:51.996Z,13.05
2017-10-29T12:03:01.808Z,12.93
2017-10-29T12:04:11.828Z,12.72
2017-10-29T12:05:21.453Z,12.52
2017-10-29T12:06:31.214Z,12.43
2017-10-29T12:07:40.952Z,12.39
2017-10-29T12:08:51.214Z,12.36
2017-10-29T12:10:00.348Z,12.35
2017-10-29T12:11:10.091Z,12.36
2017-10-29T12:12:20.318Z,12.43
2017-10-29T12:13:29.810Z,12.59
2017-10-29T12:14:39.362Z,12.71
2017-10-29T12:15:49.059Z,12.72
2017-10-29T12:16:59.345Z,12.84
2017-10-29T12:18:09.184Z,13.01
2017-10-29T12:19:19.220Z,13.21
2017-10-29T12:20:28.668Z,13.35
2017-10-29T12:21:37.940Z,13.34
2017-10-29T12:22:47.752Z,13.44
2017-10-29T12:23:58.356Z,13.68
2017-10-29T12:25:07.594Z,13.77
2017-10-29T12:26:17.700Z,13.56
2017-10-29T12:27:27.143Z,13.22
2017-10-29T12:28:37.499Z,13.02
2017-10-29T12:29:46.613Z,12.76
2017-10-29T12:30:56.357Z,12.56
2017-10-29T12:32:06.109Z,12.44
2017-10-29T12:33:15.847Z,12.36
2017-10-29T12:34:25.838Z,12.42
2017-10-29T12:35:35.286Z,12.35
2017-10-29T12:36:45.121Z,12.19
2017-10-29T12:37:54.702Z,12.03
2017-10-29T12:39:04.746Z,11.90
2017-10-29T12:40:14.078Z,11.84
2017-10-29T12:41:23.761Z,11.81
2017-10-29T12:42:34.545Z,11.81
2017-10-29T12:43:43.119Z,11.81
2017-10-29T12:44:53.396Z,11.79
2017-10-29T12:46:02.471Z,11.79
2017-10-29T12:47:12.153Z,11.81
2017-10-29T12:48:22.820Z,11.84
2017-10-29T12:49:31.628Z,11.90
2017-10-29T12:50:41.254Z,12.07
2017-10-29T12:51:50.888Z,12.27
2017-10-29T12:53:00.585Z,12.44
2017-10-29T12:54:10.360Z,12.56
2017-10-29T12:55:20.062Z,12.65
2017-10-29T12:56:29.835Z,12.80
2017-10-29T12:57:39.520Z,12.92
2017-10-29T12:58:49.309Z,13.02
2017-10-29T12:59:59.045Z,13.11
2017-10-29T13:01:09.388Z,13.18
2017-10-29T13:02:18.511Z,13.05
2017-10-29T13:03:28.343Z,12.81
2017-10-29T13:04:37.986Z,12.68
2017-10-29T13:05:47.830Z,12.39
2017-10-29T13:06:57.456Z,12.18
2017-10-29T13:08:07.160Z,12.10
2017-10-29T13:09:16.870Z,12.05
2017-10-29T13:10:26.682Z,12.03
2017-10-29T13:11:36.287Z,12.06
2017-10-29T13:12:47.044Z,12.14
2017-10-29T13:13:55.683Z,12.18
2017-10-29T13:15:05.377Z,12.28
2017-10-29T13:16:16.332Z,12.43
2017-10-29T13:17:24.825Z,12.68
2017-10-29T13:18:34.669Z,12.80
2017-10-29T13:19:44.703Z,12.85
2017-10-29T13:20:54.147Z,12.73
2017-10-29T13:22:03.886Z,12.59
2017-10-29T13:23:13.673Z,12.53
2017-10-29T13:24:23.475Z,12.44
2017-10-29T13:25:33.628Z,12.35
2017-10-29T13:26:43.150Z,12.22
2017-10-29T13:27:53.513Z,12.10
2017-10-29T13:29:02.727Z,12.07
2017-10-29T13:30:13.590Z,12.06
2017-10-29T13:31:23.210Z,12.01
2017-10-29T13:32:32.170Z,12.00
2017-10-29T13:33:42.664Z,12.01
2017-10-29T13:34:53.014Z,12.09
2017-10-29T13:36:03.082Z,12.19
2017-10-29T13:37:12.209Z,12.25
2017-10-29T13:38:21.611Z,12.27
2017-10-29T13:39:31.373Z,12.35
2017-10-29T13:40:41.321Z,12.44
2017-10-29T13:41:53.017Z,12.39
2017-10-29T13:43:02.188Z,12.38
2017-10-29T13:44:11.313Z,12.43
2017-10-29T13:45:21.374Z,12.46
2017-10-29T13:46:30.894Z,12.44
2017-10-29T13:47:41.278Z,12.35
2017-10-29T13:48:50.477Z,12.27
2017-10-29T13:50:00.385Z,12.17
2017-10-29T13:51:10.315Z,12.14
2017-10-29T13:53:30.035Z,12.18
2017-10-29T13:54:40.186Z,12.11
2017-10-29T13:55:50.282Z,12.17
2017-10-29T13:57:01.353Z,12.14
2017-10-29T13:58:10.403Z,12.06
2017-10-29T13:59:19.225Z,11.93
2017-10-29T14:00:29.477Z,11.77
2017-10-29T14:01:38.977Z,11.60
2017-10-29T14:02:48.570Z,11.42
2017-10-29T14:03:59.326Z,11.23
2017-10-29T14:05:09.216Z,11.18
2017-10-29T14:06:17.841Z,11.17
2017-10-29T14:07:27.605Z,11.27
2017-10-29T14:08:37.411Z,11.39
2017-10-29T14:09:47.146Z,11.48
2017-10-29T14:10:56.837Z,11.57
2017-10-29T14:12:06.576Z,11.64
2017-10-29T14:13:16.487Z,11.73
2017-10-29T14:14:26.087Z,11.81
2017-10-29T14:15:35.858Z,11.85
2017-10-29T14:16:45.628Z,11.88
2017-10-29T14:17:55.592Z,11.97
2017-10-29T14:19:05.294Z,11.93
2017-10-29T14:20:15.069Z,11.84
2017-10-29T14:21:24.803Z,11.76
2017-10-29T14:22:35.168Z,11.75
2017-10-29T14:23:44.377Z,11.71
2017-10-29T14:24:55.136Z,11.61
2017-10-29T14:26:03.952Z,11.52
2017-10-29T14:27:14.271Z,11.42
2017-10-29T14:28:23.587Z,11.26
2017-10-29T14:29:33.262Z,11.07
2017-10-29T14:30:42.951Z,10.96
2017-10-29T14:31:52.727Z,10.86
2017-10-29T14:33:02.430Z,10.75
2017-10-29T14:34:12.376Z,10.68
2017-10-29T14:35:21.846Z,10.67
2017-10-29T14:36:31.471Z,10.75
2017-10-29T14:37:41.679Z,10.81
2017-10-29T14:38:50.865Z,10.81
2017-10-29T14:40:00.575Z,10.85
2017-10-29T14:41:10.268Z,10.89
2017-10-29T14:42:20.040Z,10.89
2017-10-29T14:43:30.733Z,10.86
2017-10-29T14:44:39.434Z,10.89
2017-10-29T14:45:49.147Z,10.85
2017-10-29T14:46:58.936Z,10.86
2017-10-29T14:48:08.970Z,10.82
2017-10-29T14:49:18.345Z,10.80
2017-10-29T14:50:28.018Z,10.80
2017-10-29T14:51:37.815Z,10.72
2017-10-29T14:52:47.454Z,10.75
2017-10-29T14:53:57.187Z,10.72
2017-10-29T14:55:06.919Z,10.68
2017-10-29T14:56:17.322Z,10.64
2017-10-29T14:57:27.984Z,10.61